N765GA 3J6-KHXD
Flight info
| Callsign | N765GA |
|---|---|
| Flight time | N/A |
| Altitude | 9500 |
| Route | VPYIW VPZIE |
| Aircraft | C172/L-SBDFGRY/E |
Departure
| Time | 2026-04-24 20:24 |
|---|---|
| Airport | Davis Field (3J6) |
Arrival
| Time | N/A |
|---|---|
| Airport | Hilton Head Airport (KHXD) |
| Time | Latitude | Longitude | Altitude | Speed | Heading |
|---|---|---|---|---|---|
| 2026-04-24 20:01 | 30.79854 | -82.02893 | 67 ft | 0 kts | 2° |
| 2026-04-24 20:08 | 30.79865 | -82.02892 | 62 ft | 2 kts | 3° |
| 2026-04-24 20:08 | 30.79872 | -82.02890 | 66 ft | 1 kts | 33° |
| 2026-04-24 20:08 | 30.79871 | -82.02893 | 64 ft | 1 kts | 68° |
| 2026-04-24 20:09 | 30.79871 | -82.02890 | 65 ft | 1 kts | 90° |
| 2026-04-24 20:17 | 30.79871 | -82.02889 | 65 ft | 1 kts | 89° |
| 2026-04-24 20:17 | 30.79849 | -82.02804 | 64 ft | 10 kts | 87° |
| 2026-04-24 20:17 | 30.79866 | -82.02792 | 65 ft | 0 kts | 319° |
| 2026-04-24 20:21 | 30.79869 | -82.02796 | 66 ft | 4 kts | 301° |
| 2026-04-24 20:21 | 30.79922 | -82.02814 | 67 ft | 11 kts | 355° |
| 2026-04-24 20:21 | 30.79980 | -82.02815 | 67 ft | 3 kts | 19° |
| 2026-04-24 20:21 | 30.79979 | -82.02804 | 67 ft | 0 kts | 187° |
| 2026-04-24 20:22 | 30.79965 | -82.02809 | 67 ft | 0 kts | 179° |
| 2026-04-24 20:22 | 30.79950 | -82.02809 | 64 ft | 14 kts | 181° |
| 2026-04-24 20:22 | 30.79695 | -82.02816 | 68 ft | 58 kts | 180° |
| 2026-04-24 20:23 | 30.79238 | -82.02822 | 191 ft | 67 kts | 180° |
| 2026-04-24 20:23 | 30.78732 | -82.02819 | 334 ft | 74 kts | 181° |
| 2026-04-24 20:23 | 30.78193 | -82.02823 | 483 ft | 79 kts | 182° |
| 2026-04-24 20:23 | 30.77643 | -82.02835 | 666 ft | 79 kts | 183° |
| 2026-04-24 20:24 | 30.77090 | -82.02851 | 840 ft | 79 kts | 182° |
| 2026-04-24 20:24 | 30.76543 | -82.02843 | 1043 ft | 78 kts | 176° |
| 2026-04-24 20:24 | 30.76082 | -82.02513 | 1210 ft | 83 kts | 140° |
| 2026-04-24 20:24 | 30.75671 | -82.02071 | 1413 ft | 81 kts | 140° |
| 2026-04-24 20:25 | 30.75259 | -82.01626 | 1587 ft | 82 kts | 140° |
| 2026-04-24 20:25 | 30.74922 | -82.01272 | 1730 ft | 83 kts | 140° |
| 2026-04-24 20:25 | 30.74710 | -82.01034 | 1858 ft | 80 kts | 138° |
| 2026-04-24 20:25 | 30.74307 | -82.00588 | 2101 ft | 80 kts | 142° |
| 2026-04-24 20:26 | 30.73902 | -82.00130 | 2413 ft | 81 kts | 140° |
| 2026-04-24 20:26 | 30.73464 | -81.99669 | 2551 ft | 88 kts | 139° |
| 2026-04-24 20:26 | 30.73186 | -81.99057 | 2710 ft | 90 kts | 94° |
| 2026-04-24 20:26 | 30.73170 | -81.98329 | 2837 ft | 91 kts | 95° |
| 2026-04-24 20:27 | 30.73137 | -81.97588 | 2977 ft | 92 kts | 95° |
| 2026-04-24 20:27 | 30.73106 | -81.96845 | 3127 ft | 92 kts | 95° |
| 2026-04-24 20:27 | 30.73069 | -81.96100 | 3288 ft | 92 kts | 95° |
| 2026-04-24 20:27 | 30.73034 | -81.95350 | 3433 ft | 93 kts | 95° |
| 2026-04-24 20:28 | 30.72997 | -81.94600 | 3583 ft | 93 kts | 96° |
| 2026-04-24 20:28 | 30.72960 | -81.93843 | 3778 ft | 94 kts | 95° |
| 2026-04-24 20:28 | 30.72924 | -81.93083 | 3975 ft | 95 kts | 94° |
| 2026-04-24 20:28 | 30.72886 | -81.92317 | 4173 ft | 95 kts | 95° |
| 2026-04-24 20:29 | 30.72764 | -81.91844 | 4302 ft | 93 kts | 135° |
| 2026-04-24 20:29 | 30.72135 | -81.91853 | 4544 ft | 86 kts | 237° |
| 2026-04-24 20:29 | 30.72229 | -81.92470 | 4760 ft | 89 kts | 324° |
| 2026-04-24 20:29 | 30.72813 | -81.92381 | 4920 ft | 96 kts | 49° |
| 2026-04-24 20:30 | 30.72925 | -81.91637 | 5111 ft | 97 kts | 93° |
| 2026-04-24 20:30 | 30.72646 | -81.90978 | 5282 ft | 93 kts | 161° |
| 2026-04-24 20:30 | 30.72115 | -81.91166 | 5434 ft | 86 kts | 247° |
| 2026-04-24 20:30 | 30.72298 | -81.91759 | 5638 ft | 90 kts | 333° |
| 2026-04-24 20:31 | 30.72877 | -81.91565 | 5851 ft | 98 kts | 57° |
| 2026-04-24 20:31 | 30.72952 | -81.90804 | 6046 ft | 99 kts | 93° |
| 2026-04-24 20:31 | 30.73162 | -81.90063 | 6175 ft | 98 kts | 43° |
| 2026-04-24 20:31 | 30.73631 | -81.89490 | 6291 ft | 100 kts | 46° |
| 2026-04-24 20:32 | 30.74101 | -81.88897 | 6409 ft | 100 kts | 45° |
| 2026-04-24 20:32 | 30.74570 | -81.88305 | 6530 ft | 100 kts | 45° |
| 2026-04-24 20:32 | 30.75039 | -81.87707 | 6680 ft | 101 kts | 45° |
| 2026-04-24 20:32 | 30.75508 | -81.87105 | 6856 ft | 101 kts | 45° |
| 2026-04-24 20:33 | 30.75829 | -81.86690 | 6868 ft | 107 kts | 45° |
| 2026-04-24 20:33 | 30.75975 | -81.86501 | 6868 ft | 110 kts | 46° |
| 2026-04-24 20:33 | 30.76459 | -81.85863 | 6780 ft | 119 kts | 46° |
| 2026-04-24 20:33 | 30.76998 | -81.85161 | 6678 ft | 124 kts | 47° |
| 2026-04-24 20:34 | 30.77442 | -81.84303 | 6577 ft | 128 kts | 84° |
| 2026-04-24 20:34 | 30.77268 | -81.83295 | 6483 ft | 129 kts | 108° |
| 2026-04-24 20:34 | 30.77042 | -81.82275 | 6361 ft | 130 kts | 105° |
| 2026-04-24 20:34 | 30.76848 | -81.81251 | 6252 ft | 131 kts | 104° |
| 2026-04-24 20:35 | 30.76657 | -81.80207 | 6121 ft | 131 kts | 104° |
| 2026-04-24 20:35 | 30.76473 | -81.79172 | 5995 ft | 130 kts | 103° |
| 2026-04-24 20:35 | 30.76294 | -81.78157 | 5870 ft | 130 kts | 103° |
| 2026-04-24 20:35 | 30.76112 | -81.77130 | 5744 ft | 130 kts | 103° |
| 2026-04-24 20:36 | 30.75929 | -81.76096 | 5623 ft | 131 kts | 103° |
| 2026-04-24 20:36 | 30.75743 | -81.75041 | 5502 ft | 131 kts | 103° |
| 2026-04-24 20:36 | 30.75560 | -81.73999 | 5452 ft | 131 kts | 103° |
| 2026-04-24 20:36 | 30.75381 | -81.72977 | 5448 ft | 127 kts | 103° |
| 2026-04-24 20:37 | 30.75206 | -81.71982 | 5443 ft | 126 kts | 104° |
| 2026-04-24 20:37 | 30.75031 | -81.70989 | 5451 ft | 124 kts | 103° |
| 2026-04-24 20:37 | 30.74859 | -81.70017 | 5452 ft | 123 kts | 104° |
| 2026-04-24 20:37 | 30.74686 | -81.69035 | 5453 ft | 124 kts | 104° |
| 2026-04-24 20:38 | 30.74512 | -81.68054 | 5489 ft | 121 kts | 104° |
| 2026-04-24 20:38 | 30.74343 | -81.67099 | 5510 ft | 122 kts | 103° |
| 2026-04-24 20:38 | 30.74168 | -81.66118 | 5513 ft | 126 kts | 104° |
| 2026-04-24 20:38 | 30.73992 | -81.65124 | 5520 ft | 126 kts | 103° |
| 2026-04-24 20:39 | 30.73812 | -81.64119 | 5525 ft | 129 kts | 103° |
| 2026-04-24 20:39 | 30.73632 | -81.63105 | 5526 ft | 127 kts | 103° |
| 2026-04-24 20:39 | 30.73454 | -81.62107 | 5523 ft | 125 kts | 103° |
| 2026-04-24 20:39 | 30.73281 | -81.61131 | 5524 ft | 125 kts | 103° |
| 2026-04-24 20:40 | 30.73103 | -81.60130 | 5521 ft | 125 kts | 104° |
| 2026-04-24 20:40 | 30.72930 | -81.59158 | 5520 ft | 124 kts | 103° |
| 2026-04-24 20:40 | 30.72756 | -81.58180 | 5518 ft | 124 kts | 103° |
| 2026-04-24 20:40 | 30.72582 | -81.57200 | 5516 ft | 124 kts | 103° |
| 2026-04-24 20:41 | 30.72406 | -81.56218 | 5522 ft | 124 kts | 104° |
| 2026-04-24 20:41 | 30.72229 | -81.55227 | 5533 ft | 126 kts | 104° |
| 2026-04-24 20:41 | 30.72047 | -81.54213 | 5523 ft | 129 kts | 103° |
| 2026-04-24 20:41 | 30.71867 | -81.53201 | 5525 ft | 127 kts | 103° |
| 2026-04-24 20:42 | 30.71691 | -81.52213 | 5520 ft | 125 kts | 103° |
| 2026-04-24 20:42 | 30.71514 | -81.51223 | 5524 ft | 125 kts | 103° |
| 2026-04-24 20:42 | 30.71338 | -81.50238 | 5524 ft | 124 kts | 103° |
| 2026-04-24 20:42 | 30.71160 | -81.49250 | 5522 ft | 125 kts | 104° |
| 2026-04-24 20:43 | 30.70984 | -81.48263 | 5522 ft | 125 kts | 104° |
| 2026-04-24 20:43 | 30.70807 | -81.47274 | 5524 ft | 124 kts | 104° |
| 2026-04-24 20:43 | 30.70692 | -81.46279 | 5519 ft | 125 kts | 82° |
| 2026-04-24 20:43 | 30.71045 | -81.45388 | 5516 ft | 121 kts | 45° |
| 2026-04-24 20:44 | 30.71730 | -81.44885 | 5520 ft | 115 kts | 13° |
| 2026-04-24 20:44 | 30.72485 | -81.44578 | 5511 ft | 114 kts | 15° |
| 2026-04-24 20:44 | 30.73224 | -81.44264 | 5512 ft | 113 kts | 16° |
| 2026-04-24 20:44 | 30.73963 | -81.43953 | 5513 ft | 113 kts | 13° |
| 2026-04-24 20:45 | 30.74697 | -81.43644 | 5511 ft | 111 kts | 15° |
| 2026-04-24 20:45 | 30.75428 | -81.43337 | 5511 ft | 111 kts | 13° |
| 2026-04-24 20:45 | 30.76152 | -81.43032 | 5511 ft | 111 kts | 14° |
| 2026-04-24 20:45 | 30.76878 | -81.42729 | 5511 ft | 111 kts | 14° |
| 2026-04-24 20:46 | 30.77606 | -81.42423 | 5514 ft | 112 kts | 14° |
| 2026-04-24 20:46 | 30.78340 | -81.42114 | 5518 ft | 112 kts | 13° |
| 2026-04-24 20:46 | 30.79075 | -81.41805 | 5520 ft | 114 kts | 15° |
| 2026-04-24 20:46 | 30.79826 | -81.41489 | 5521 ft | 115 kts | 15° |
| 2026-04-24 20:47 | 30.80578 | -81.41171 | 5525 ft | 115 kts | 13° |
| 2026-04-24 20:47 | 30.81334 | -81.40851 | 5528 ft | 115 kts | 15° |
| 2026-04-24 20:47 | 30.82086 | -81.40536 | 5527 ft | 115 kts | 14° |
| 2026-04-24 20:47 | 30.82838 | -81.40217 | 5527 ft | 114 kts | 15° |
| 2026-04-24 20:48 | 30.83581 | -81.39905 | 5523 ft | 113 kts | 14° |
| 2026-04-24 20:48 | 30.84317 | -81.39595 | 5522 ft | 112 kts | 15° |
| 2026-04-24 20:48 | 30.85048 | -81.39287 | 5519 ft | 112 kts | 15° |
| 2026-04-24 20:48 | 30.85779 | -81.38979 | 5522 ft | 112 kts | 15° |
| 2026-04-24 20:49 | 30.86508 | -81.38671 | 5519 ft | 111 kts | 15° |
| 2026-04-24 20:49 | 30.87235 | -81.38365 | 5520 ft | 111 kts | 15° |
| 2026-04-24 20:49 | 30.87963 | -81.38057 | 5515 ft | 112 kts | 17° |
| 2026-04-24 20:49 | 30.88687 | -81.37753 | 5520 ft | 113 kts | 15° |
| 2026-04-24 20:50 | 30.89429 | -81.37440 | 5520 ft | 113 kts | 14° |
| 2026-04-24 20:50 | 30.90167 | -81.37128 | 5519 ft | 113 kts | 14° |
| 2026-04-24 20:50 | 30.90906 | -81.36815 | 5518 ft | 112 kts | 15° |
| 2026-04-24 20:50 | 30.91645 | -81.36504 | 5522 ft | 113 kts | 14° |
| 2026-04-24 20:51 | 30.92391 | -81.36190 | 5523 ft | 114 kts | 16° |
| 2026-04-24 20:51 | 30.93146 | -81.35872 | 5515 ft | 116 kts | 15° |
| 2026-04-24 20:51 | 30.93904 | -81.35551 | 5516 ft | 116 kts | 16° |
| 2026-04-24 20:51 | 30.94662 | -81.35231 | 5516 ft | 115 kts | 16° |
| 2026-04-24 20:52 | 30.95413 | -81.34914 | 5516 ft | 115 kts | 15° |
| 2026-04-24 20:52 | 30.96166 | -81.34596 | 5513 ft | 116 kts | 15° |
| 2026-04-24 20:52 | 30.96924 | -81.34275 | 5514 ft | 116 kts | 15° |
| 2026-04-24 20:52 | 30.97681 | -81.33953 | 5511 ft | 116 kts | 15° |
| 2026-04-24 20:53 | 30.98442 | -81.33632 | 5510 ft | 116 kts | 16° |
| 2026-04-24 20:53 | 30.99201 | -81.33310 | 5512 ft | 116 kts | 16° |
| 2026-04-24 20:53 | 30.99958 | -81.32991 | 5509 ft | 116 kts | 15° |
| 2026-04-24 20:53 | 31.00707 | -81.32675 | 5509 ft | 116 kts | 15° |
| 2026-04-24 20:54 | 31.01463 | -81.32355 | 5510 ft | 115 kts | 15° |
| 2026-04-24 20:54 | 31.02213 | -81.32039 | 5507 ft | 114 kts | 16° |
| 2026-04-24 20:54 | 31.02957 | -81.31723 | 5506 ft | 114 kts | 14° |
| 2026-04-24 20:54 | 31.03700 | -81.31407 | 5507 ft | 113 kts | 16° |
| 2026-04-24 20:55 | 31.04442 | -81.31095 | 5508 ft | 114 kts | 16° |
| 2026-04-24 20:55 | 31.05181 | -81.30781 | 5508 ft | 112 kts | 15° |
| 2026-04-24 20:55 | 31.05919 | -81.30469 | 5503 ft | 113 kts | 16° |
| 2026-04-24 20:55 | 31.06657 | -81.30157 | 5509 ft | 113 kts | 15° |
| 2026-04-24 20:56 | 31.07388 | -81.29848 | 5508 ft | 113 kts | 16° |
| 2026-04-24 20:56 | 31.08134 | -81.29531 | 5511 ft | 114 kts | 16° |
| 2026-04-24 20:56 | 31.08881 | -81.29214 | 5510 ft | 115 kts | 15° |
| 2026-04-24 20:56 | 31.09634 | -81.28894 | 5512 ft | 116 kts | 15° |
| 2026-04-24 20:57 | 31.10390 | -81.28573 | 5509 ft | 115 kts | 16° |
| 2026-04-24 20:57 | 31.11147 | -81.28252 | 5505 ft | 116 kts | 16° |
| 2026-04-24 20:57 | 31.11902 | -81.27932 | 5504 ft | 115 kts | 16° |
| 2026-04-24 20:57 | 31.12652 | -81.27614 | 5503 ft | 114 kts | 15° |
| 2026-04-24 20:58 | 31.13393 | -81.27301 | 5505 ft | 113 kts | 15° |
| 2026-04-24 20:58 | 31.14115 | -81.26996 | 5640 ft | 104 kts | 15° |
| 2026-04-24 20:58 | 31.14770 | -81.26721 | 5787 ft | 98 kts | 14° |
| 2026-04-24 20:58 | 31.15413 | -81.26451 | 5884 ft | 98 kts | 14° |
| 2026-04-24 20:59 | 31.16054 | -81.26180 | 5984 ft | 97 kts | 13° |
| 2026-04-24 20:59 | 31.16691 | -81.25910 | 6088 ft | 97 kts | 15° |
| 2026-04-24 20:59 | 31.17324 | -81.25641 | 6175 ft | 98 kts | 15° |
| 2026-04-24 20:59 | 31.17968 | -81.25367 | 6291 ft | 98 kts | 13° |
| 2026-04-24 21:00 | 31.18608 | -81.25097 | 6405 ft | 98 kts | 14° |
| 2026-04-24 21:00 | 31.19245 | -81.24825 | 6505 ft | 98 kts | 14° |
| 2026-04-24 21:00 | 31.19678 | -81.24641 | 6570 ft | 98 kts | 14° |
| 2026-04-24 21:00 | 31.20325 | -81.24367 | 6664 ft | 99 kts | 14° |
| 2026-04-24 21:01 | 31.20962 | -81.24096 | 6756 ft | 98 kts | 13° |
| 2026-04-24 21:01 | 31.21604 | -81.23823 | 6845 ft | 98 kts | 14° |
| 2026-04-24 21:01 | 31.22245 | -81.23551 | 6932 ft | 98 kts | 13° |
| 2026-04-24 21:01 | 31.22889 | -81.23277 | 7018 ft | 99 kts | 13° |
| 2026-04-24 21:02 | 31.23532 | -81.23004 | 7124 ft | 98 kts | 13° |
| 2026-04-24 21:02 | 31.24177 | -81.22729 | 7209 ft | 99 kts | 12° |
| 2026-04-24 21:02 | 31.24820 | -81.22457 | 7303 ft | 98 kts | 13° |
| 2026-04-24 21:02 | 31.25457 | -81.22186 | 7387 ft | 99 kts | 13° |
| 2026-04-24 21:03 | 31.26105 | -81.21910 | 7487 ft | 99 kts | 13° |
| 2026-04-24 21:03 | 31.26781 | -81.21623 | 7504 ft | 107 kts | 13° |
| 2026-04-24 21:03 | 31.27500 | -81.21315 | 7504 ft | 113 kts | 14° |
| 2026-04-24 21:03 | 31.28246 | -81.20994 | 7501 ft | 115 kts | 14° |
| 2026-04-24 21:04 | 31.29000 | -81.20670 | 7504 ft | 115 kts | 13° |
| 2026-04-24 21:04 | 31.29744 | -81.20351 | 7498 ft | 114 kts | 14° |
| 2026-04-24 21:04 | 31.30484 | -81.20036 | 7498 ft | 113 kts | 15° |
| 2026-04-24 21:04 | 31.31219 | -81.19723 | 7499 ft | 112 kts | 14° |
| 2026-04-24 21:05 | 31.31953 | -81.19410 | 7496 ft | 112 kts | 14° |
| 2026-04-24 21:05 | 31.32675 | -81.19103 | 7494 ft | 111 kts | 14° |
| 2026-04-24 21:05 | 31.33401 | -81.18795 | 7498 ft | 111 kts | 14° |
| 2026-04-24 21:05 | 31.34124 | -81.18485 | 7499 ft | 110 kts | 14° |
| 2026-04-24 21:06 | 31.34848 | -81.18177 | 7499 ft | 110 kts | 14° |
| 2026-04-24 21:06 | 31.35568 | -81.17871 | 7499 ft | 110 kts | 14° |
| 2026-04-24 21:06 | 31.36288 | -81.17564 | 7496 ft | 110 kts | 14° |
| 2026-04-24 21:06 | 31.37007 | -81.17257 | 7496 ft | 110 kts | 14° |
| 2026-04-24 21:07 | 31.37725 | -81.16951 | 7497 ft | 110 kts | 14° |
| 2026-04-24 21:07 | 31.38446 | -81.16643 | 7495 ft | 110 kts | 14° |
| 2026-04-24 21:07 | 31.39168 | -81.16335 | 7495 ft | 110 kts | 14° |
| 2026-04-24 21:07 | 31.39890 | -81.16027 | 7496 ft | 110 kts | 13° |
| 2026-04-24 21:08 | 31.40610 | -81.15720 | 7492 ft | 110 kts | 14° |
| 2026-04-24 21:08 | 31.41333 | -81.15411 | 7496 ft | 111 kts | 14° |
| 2026-04-24 21:08 | 31.42048 | -81.15106 | 7497 ft | 111 kts | 14° |
| 2026-04-24 21:08 | 31.42776 | -81.14795 | 7496 ft | 111 kts | 14° |
| 2026-04-24 21:09 | 31.43511 | -81.14481 | 7493 ft | 111 kts | 14° |
| 2026-04-24 21:09 | 31.44230 | -81.14175 | 7495 ft | 111 kts | 14° |
| 2026-04-24 21:09 | 31.44958 | -81.13864 | 7491 ft | 111 kts | 13° |
| 2026-04-24 21:09 | 31.45687 | -81.13552 | 7492 ft | 112 kts | 13° |
| 2026-04-24 21:10 | 31.46418 | -81.13238 | 7493 ft | 112 kts | 14° |
| 2026-04-24 21:10 | 31.47149 | -81.12927 | 7496 ft | 112 kts | 14° |
| 2026-04-24 21:10 | 31.47879 | -81.12615 | 7494 ft | 112 kts | 14° |
| 2026-04-24 21:10 | 31.48607 | -81.12303 | 7494 ft | 111 kts | 14° |
| 2026-04-24 21:11 | 31.49334 | -81.11992 | 7492 ft | 111 kts | 14° |
| 2026-04-24 21:11 | 31.50058 | -81.11682 | 7492 ft | 111 kts | 14° |
| 2026-04-24 21:11 | 31.50780 | -81.11373 | 7494 ft | 110 kts | 13° |
| 2026-04-24 21:11 | 31.51503 | -81.11065 | 7490 ft | 110 kts | 14° |
| 2026-04-24 21:12 | 31.52226 | -81.10756 | 7492 ft | 111 kts | 14° |
| 2026-04-24 21:12 | 31.52950 | -81.10446 | 7491 ft | 111 kts | 14° |
| 2026-04-24 21:12 | 31.53668 | -81.10139 | 7494 ft | 111 kts | 14° |
| 2026-04-24 21:12 | 31.54396 | -81.09827 | 7495 ft | 112 kts | 14° |
| 2026-04-24 21:13 | 31.55128 | -81.09513 | 7493 ft | 112 kts | 14° |
| 2026-04-24 21:13 | 31.55859 | -81.09199 | 7493 ft | 112 kts | 13° |
| 2026-04-24 21:13 | 31.56589 | -81.08888 | 7495 ft | 112 kts | 14° |
| 2026-04-24 21:13 | 31.57329 | -81.08570 | 7500 ft | 111 kts | 13° |
| 2026-04-24 21:14 | 31.58042 | -81.08265 | 7501 ft | 111 kts | 13° |
| 2026-04-24 21:14 | 31.58768 | -81.07954 | 7504 ft | 111 kts | 14° |
| 2026-04-24 21:14 | 31.59500 | -81.07640 | 7505 ft | 112 kts | 13° |
| 2026-04-24 21:14 | 31.60230 | -81.07328 | 7506 ft | 111 kts | 13° |
| 2026-04-24 21:15 | 31.60957 | -81.07015 | 7506 ft | 111 kts | 14° |
| 2026-04-24 21:15 | 31.61679 | -81.06706 | 7502 ft | 110 kts | 14° |
| 2026-04-24 21:15 | 31.62401 | -81.06396 | 7503 ft | 110 kts | 14° |
| 2026-04-24 21:15 | 31.63123 | -81.06087 | 7503 ft | 110 kts | 14° |
| 2026-04-24 21:16 | 31.63842 | -81.05779 | 7501 ft | 110 kts | 14° |
| 2026-04-24 21:16 | 31.64563 | -81.05469 | 7502 ft | 111 kts | 14° |
| 2026-04-24 21:16 | 31.65289 | -81.05158 | 7500 ft | 110 kts | 15° |
| 2026-04-24 21:16 | 31.66008 | -81.04849 | 7501 ft | 110 kts | 14° |
| 2026-04-24 21:17 | 31.66730 | -81.04538 | 7501 ft | 111 kts | 14° |
| 2026-04-24 21:17 | 31.67454 | -81.04227 | 7500 ft | 111 kts | 13° |
| 2026-04-24 21:17 | 31.68179 | -81.03916 | 7502 ft | 111 kts | 15° |
| 2026-04-24 21:17 | 31.68905 | -81.03604 | 7503 ft | 111 kts | 14° |
| 2026-04-24 21:18 | 31.69636 | -81.03290 | 7500 ft | 112 kts | 14° |
| 2026-04-24 21:18 | 31.70368 | -81.02975 | 7498 ft | 112 kts | 14° |
| 2026-04-24 21:18 | 31.71091 | -81.02665 | 7496 ft | 112 kts | 14° |
| 2026-04-24 21:18 | 31.71823 | -81.02350 | 7497 ft | 113 kts | 15° |
| 2026-04-24 21:19 | 31.72561 | -81.02032 | 7493 ft | 112 kts | 14° |
| 2026-04-24 21:19 | 31.73293 | -81.01718 | 7495 ft | 112 kts | 14° |
| 2026-04-24 21:19 | 31.74027 | -81.01402 | 7496 ft | 112 kts | 13° |
| 2026-04-24 21:19 | 31.74759 | -81.01088 | 7494 ft | 112 kts | 13° |
| 2026-04-24 21:20 | 31.76227 | -81.00455 | 7491 ft | 112 kts | 14° |
| 2026-04-24 21:20 | 31.76959 | -81.00141 | 7491 ft | 112 kts | 14° |
| 2026-04-24 21:20 | 31.77691 | -80.99826 | 7491 ft | 112 kts | 14° |
| 2026-04-24 21:21 | 31.78422 | -80.99511 | 7490 ft | 112 kts | 15° |
| 2026-04-24 21:21 | 31.79151 | -80.99196 | 7486 ft | 111 kts | 14° |
| 2026-04-24 21:21 | 31.79878 | -80.98883 | 7488 ft | 111 kts | 14° |
| 2026-04-24 21:21 | 31.80618 | -80.98564 | 7399 ft | 114 kts | 14° |
| 2026-04-24 21:22 | 31.81356 | -80.98240 | 7279 ft | 112 kts | 14° |
| 2026-04-24 21:22 | 31.82087 | -80.97924 | 7155 ft | 112 kts | 14° |
| 2026-04-24 21:22 | 31.82815 | -80.97609 | 7026 ft | 111 kts | 14° |
| 2026-04-24 21:22 | 31.83541 | -80.97295 | 6912 ft | 111 kts | 14° |
| 2026-04-24 21:23 | 31.84262 | -80.96985 | 6789 ft | 110 kts | 15° |
| 2026-04-24 21:23 | 31.84987 | -80.96674 | 6671 ft | 111 kts | 15° |
| 2026-04-24 21:23 | 31.85714 | -80.96360 | 6551 ft | 111 kts | 17° |
| 2026-04-24 21:23 | 31.86431 | -80.96051 | 6435 ft | 111 kts | 13° |
| 2026-04-24 21:24 | 31.87159 | -80.95737 | 6312 ft | 111 kts | 15° |
| 2026-04-24 21:24 | 31.87889 | -80.95422 | 6191 ft | 112 kts | 14° |
| 2026-04-24 21:24 | 31.88625 | -80.95104 | 6063 ft | 113 kts | 17° |
| 2026-04-24 21:24 | 31.89361 | -80.94787 | 5939 ft | 113 kts | 15° |
| 2026-04-24 21:25 | 31.90093 | -80.94470 | 5816 ft | 112 kts | 15° |
| 2026-04-24 21:25 | 31.90829 | -80.94153 | 5688 ft | 112 kts | 17° |
| 2026-04-24 21:25 | 31.91565 | -80.93836 | 5565 ft | 113 kts | 17° |
| 2026-04-24 21:25 | 31.92306 | -80.93516 | 5442 ft | 114 kts | 17° |
| 2026-04-24 21:26 | 31.93049 | -80.93194 | 5324 ft | 114 kts | 17° |
| 2026-04-24 21:26 | 31.93797 | -80.92871 | 5201 ft | 115 kts | 17° |
| 2026-04-24 21:26 | 31.94552 | -80.92545 | 5078 ft | 115 kts | 17° |
| 2026-04-24 21:26 | 31.95300 | -80.92221 | 4953 ft | 115 kts | 17° |
| 2026-04-24 21:27 | 31.96047 | -80.91898 | 4836 ft | 114 kts | 19° |
| 2026-04-24 21:27 | 31.96796 | -80.91574 | 4712 ft | 115 kts | 18° |
| 2026-04-24 21:27 | 31.97551 | -80.91249 | 4590 ft | 116 kts | 18° |
| 2026-04-24 21:27 | 31.98311 | -80.90919 | 4476 ft | 118 kts | 19° |
| 2026-04-24 21:28 | 31.99079 | -80.90585 | 4352 ft | 119 kts | 19° |
| 2026-04-24 21:28 | 31.99855 | -80.90250 | 4228 ft | 119 kts | 19° |